Aérodrome :
LOGIN :

S'inscrire | Disclaimer

   EN    FR    IT 

 










Légende :    VFR   VFR Marginal   IFR   IFR Intensif   IFR Très Intensif
Visi : 
Plafond : 
>= 8 km
>= 3000ft
5 à 8 km
1000 à 3000 ft
1500m à 5 km
500 à 1000 ft
800 à 1500m
200 à 500 ft
< 800m
< 200 ft
Symboles :   Orages  Brouillard  Fortes neiges  Fortes précipitations  Vent > 20 kt
SIGMETs :   Divers  Orages  Givrage  Turbulence  Onde Orograph.  Cendres Volcan.







- Altitude de l'aérodrome : 63 ft
- Code IATA : BZM


EHWO - Woensdrecht Airbase

DERNIER METAR :
  • 230355Z AUTO 22004KT 3800 BR OVC022 09/07 Q1028 GRN

METARs EXPIRÉS :
  • 230345Z AUTO 21003KT 3700 BR OVC022 09/07 Q1028 GRN
  • 230329Z AUTO 21004KT 3700 BR BKN019 OVC023 09/07 Q1028 GRN
  • 230325Z AUTO 22004KT 3400 BR OVC019 09/07 Q1028 YLO
  • 230300Z AUTO 20003KT 180V250 3400 BR BKN014 OVC017 09/07 Q1028 YLO
  • 230259Z AUTO 22003KT 210V280 3500 BR SCT014 OVC016 09/07 Q1028 YLO
  • 230255Z AUTO 23004KT 210V280 3400 BR FEW014 OVC016 09/07 Q1028 YLO
  • 230225Z AUTO 25005KT 3300 BR OVC016 08/07 Q1028 YLO
  • 230155Z AUTO 25005KT 3000 BR BKN016 OVC019 08/07 Q1028 YLO
  • 230125Z AUTO 24004KT 3500 BR OVC017 08/07 Q1028 YLO

Prévision TAF périmée.
Pas de NOTAMs connus pour ce terrain.



MET'MAP, la Météo Aéronautique d'un coup d'oeil ! - Copyright ORBIFLY Décembre 2007 - Disclaimer

ORBIFLY MET'MAP TEAM :

Programmation & Développement : Alexandra Zaïnal
Conception & Développement : Baudouin d'Aumeries
Co-Programmation & Développement : Marc-Olivier Méhu
Soutien technique & logistique : Manuel Goepfert

Contact : metmap@orbifly.com




SOURCES & CREDITS :

   NOAA